Time;durP1;ratioP1;P1;durP2;ratioP2;P2;SDS_P1;SDS_P2;PMS_P1;PMS_P2;Temp;Humidity;BMP_temperature;BMP_pressure;BME280_temperature;BME280_humidity;BME280_pressure;Samples;Min_cycle;Max_cycle;Signal;HPM_P1;HPM_P2
2021/10/11 00:00:14;;;;;;;1999.90;999.90;;;;;;;11.98;100.00;99827.88;4972965;28;20039;-42
2021/10/11 00:02:40;;;;;;;1999.90;999.90;;;;;;;11.97;100.00;99823.63;4971706;28;20101;-42
2021/10/11 00:05:07;;;;;;;1999.90;999.90;;;;;;;11.90;100.00;99823.75;4973338;28;20041;-42
2021/10/11 00:07:33;;;;;;;1999.90;999.90;;;;;;;11.89;100.00;99814.13;4973617;28;20027;-42
2021/10/11 00:09:58;;;;;;;1999.90;999.90;;;;;;;11.90;100.00;99815.75;4973607;28;20550;-42
2021/10/11 00:12:24;;;;;;;1999.90;999.90;;;;;;;11.91;100.00;99822.72;4973282;28;20062;-42
2021/10/11 00:14:54;;;;;;;1999.90;999.90;;;;;;;11.88;100.00;99813.34;4973401;28;20402;-42
2021/10/11 00:17:20;;;;;;;1999.90;999.90;;;;;;;11.90;100.00;99810.41;4973497;28;20039;-42
2021/10/11 00:19:50;;;;;;;1999.90;999.90;;;;;;;11.93;100.00;99795.75;4974018;28;20118;-42
2021/10/11 00:22:20;;;;;;;1999.90;999.90;;;;;;;11.95;100.00;99794.50;4973390;28;20026;-42
2021/10/11 00:24:45;;;;;;;1999.90;999.90;;;;;;;11.96;100.00;99792.63;4973135;28;20029;-42
2021/10/11 00:27:11;;;;;;;1999.90;999.90;;;;;;;11.95;100.00;99791.00;4973431;28;20023;-42
2021/10/11 00:29:37;;;;;;;1999.90;999.90;;;;;;;11.91;100.00;99790.66;4973088;28;20045;-42
2021/10/11 00:32:03;;;;;;;1999.90;999.90;;;;;;;11.95;100.00;99781.13;4973404;28;20018;-42
2021/10/11 00:34:30;;;;;;;1999.90;999.90;;;;;;;11.96;100.00;99785.41;4971832;28;20134;-42
2021/10/11 00:36:56;;;;;;;1999.90;999.90;;;;;;;11.90;100.00;99789.84;4973347;28;20054;-42
2021/10/11 00:39:22;;;;;;;1999.90;999.90;;;;;;;11.94;100.00;99781.38;4971871;28;20475;-42
2021/10/11 00:41:48;;;;;;;1999.90;999.90;;;;;;;12.00;100.00;99783.06;4973285;28;20035;-42
2021/10/11 00:44:14;;;;;;;1999.90;999.90;;;;;;;11.98;100.00;99780.63;4973133;28;20548;-42
2021/10/11 00:46:39;;;;;;;1999.90;999.90;;;;;;;11.90;100.00;99776.50;4973281;28;20519;-42
2021/10/11 00:49:05;;;;;;;1999.90;999.90;;;;;;;11.90;100.00;99773.03;4972930;28;20058;-42
2021/10/11 00:51:31;;;;;;;1999.90;999.90;;;;;;;11.96;100.00;99776.59;4972946;28;20027;-42
2021/10/11 00:53:57;;;;;;;1999.90;999.90;;;;;;;11.97;100.00;99765.66;4972773;28;20022;-42
2021/10/11 00:56:23;;;;;;;1999.90;999.90;;;;;;;11.91;100.00;99764.75;4972870;28;20039;-42
2021/10/11 00:58:48;;;;;;;1999.90;999.90;;;;;;;11.90;100.00;99767.69;4972901;28;20034;-42
2021/10/11 01:01:14;;;;;;;1999.90;999.90;;;;;;;11.86;100.00;99767.38;4972373;28;20041;-42
2021/10/11 01:03:40;;;;;;;1999.90;999.90;;;;;;;11.86;100.00;99759.38;4972535;28;20061;-42
2021/10/11 01:06:06;;;;;;;1999.90;999.90;;;;;;;11.87;100.00;99754.84;4973046;28;20498;-42
2021/10/11 01:08:32;;;;;;;1999.90;999.90;;;;;;;11.88;100.00;99751.91;4971958;28;20501;-42
2021/10/11 01:10:58;;;;;;;1999.90;999.90;;;;;;;11.89;100.00;99750.88;4972836;28;20031;-42
2021/10/11 01:13:24;;;;;;;1999.90;999.90;;;;;;;11.90;100.00;99749.00;4975755;28;20031;-42
2021/10/11 01:15:49;;;;;;;1999.90;999.90;;;;;;;11.90;100.00;99740.97;4976370;28;20045;-42
2021/10/11 01:18:15;;;;;;;1999.90;999.90;;;;;;;11.86;100.00;99739.88;4976410;28;20113;-43
2021/10/11 01:20:41;;;;;;;1999.90;999.90;;;;;;;11.87;100.00;99736.94;4977074;28;20038;-42
2021/10/11 01:23:06;;;;;;;1999.90;999.90;;;;;;;11.91;100.00;99731.91;4976838;28;20042;-42
2021/10/11 01:25:32;;;;;;;1999.90;999.90;;;;;;;11.94;100.00;99728.78;4976499;28;20023;-42
2021/10/11 01:27:58;;;;;;;1999.90;999.90;;;;;;;11.94;100.00;99726.09;4976182;28;20414;-42
2021/10/11 01:30:24;;;;;;;1999.90;999.90;;;;;;;11.94;100.00;99723.44;4976160;28;20031;-42
2021/10/11 01:32:50;;;;;;;1999.90;999.90;;;;;;;11.95;100.00;99719.72;4976103;28;20042;-42
2021/10/11 01:35:16;;;;;;;1999.90;999.90;;;;;;;11.97;100.00;99725.59;4976068;28;20034;-42
2021/10/11 01:37:43;;;;;;;1999.90;999.90;;;;;;;11.95;100.00;99722.38;4976021;28;20046;-42
2021/10/11 01:40:10;;;;;;;1999.90;999.90;;;;;;;11.96;100.00;99715.16;4976234;28;20098;-42
2021/10/11 01:42:36;;;;;;;1999.90;999.90;;;;;;;11.89;100.00;99713.47;4976175;28;20031;-42
2021/10/11 01:45:02;;;;;;;;;;;;;;;11.90;100.00;99720.41;4976583;28;20031;-42
2021/10/11 01:47:28;;;;;;;1999.90;999.90;;;;;;;11.91;100.00;99715.91;4976007;28;20379;-42
2021/10/11 01:49:55;;;;;;;1999.90;999.90;;;;;;;11.84;100.00;99712.63;4976132;28;20023;-42
2021/10/11 01:52:23;;;;;;;1999.90;999.90;;;;;;;11.82;100.00;99710.19;4976070;28;20407;-42
2021/10/11 01:54:49;;;;;;;1999.90;999.90;;;;;;;11.77;100.00;99709.34;4975660;28;20093;-42
2021/10/11 01:57:16;;;;;;;1999.90;999.90;;;;;;;11.79;100.00;99709.88;4975736;28;20118;-42
2021/10/11 01:59:41;;;;;;;1999.90;999.90;;;;;;;11.82;100.00;99707.53;4975619;28;20039;-42
2021/10/11 02:02:07;;;;;;;1999.90;999.90;;;;;;;11.78;100.00;99697.63;4975890;28;20030;-42
2021/10/11 02:04:33;;;;;;;1999.90;999.90;;;;;;;11.84;100.00;99693.94;4975800;28;20471;-42
2021/10/11 02:06:58;;;;;;;1999.90;999.90;;;;;;;11.82;100.00;99688.84;4974206;28;20089;-42
2021/10/11 02:09:24;;;;;;;1999.90;999.90;;;;;;;11.86;100.00;99681.13;4975592;28;20549;-42
2021/10/11 02:11:50;;;;;;;1999.90;999.90;;;;;;;11.79;100.00;99677.84;4975383;28;20033;-42
2021/10/11 02:14:16;;;;;;;1999.90;999.90;;;;;;;11.81;100.00;99684.56;4975975;28;20034;-43
2021/10/11 02:16:42;;;;;;;1999.90;999.90;;;;;;;11.79;100.00;99676.00;4975271;28;20042;-42
2021/10/11 02:19:07;;;;;;;1999.90;999.90;;;;;;;11.80;100.00;99672.25;4975259;28;20031;-42
2021/10/11 02:21:33;;;;;;;1999.90;999.90;;;;;;;11.74;100.00;99673.25;4975841;28;20039;-42
2021/10/11 02:23:59;;;;;;;1999.90;999.90;;;;;;;11.78;100.00;99677.06;4974380;28;20045;-42
2021/10/11 02:26:24;;;;;;;1999.90;999.90;;;;;;;11.83;100.00;99678.97;4975061;28;20031;-42
2021/10/11 02:28:51;;;;;;;1999.90;999.90;;;;;;;11.80;100.00;99666.91;4975423;28;20038;-42
2021/10/11 02:31:17;;;;;;;;;;;;;;;11.81;100.00;99665.06;4975561;28;20085;-42
2021/10/11 02:33:42;;;;;;;1999.90;999.90;;;;;;;11.78;100.00;99669.03;4975336;28;19914;-42
2021/10/11 02:36:08;;;;;;;1999.90;999.90;;;;;;;11.80;100.00;99676.78;4975019;28;20471;-43
2021/10/11 02:38:34;;;;;;;1999.90;999.90;;;;;;;11.79;100.00;99668.00;4975226;28;20415;-42
2021/10/11 02:40:59;;;;;;;1999.90;999.90;;;;;;;11.75;100.00;99669.53;4974916;28;20057;-42
2021/10/11 02:43:25;;;;;;;1999.90;999.90;;;;;;;11.77;100.00;99655.94;4975083;28;20038;-42
2021/10/11 02:45:52;;;;;;;1999.90;999.90;;;;;;;11.70;100.00;99662.31;4974701;28;20505;-42
2021/10/11 02:48:18;;;;;;;1999.90;999.90;;;;;;;11.63;100.00;99651.00;4974725;28;20101;-43
2021/10/11 02:50:43;;;;;;;1999.90;999.90;;;;;;;11.65;100.00;99664.09;4974664;28;20026;-42
2021/10/11 02:53:09;;;;;;;1999.90;999.90;;;;;;;11.67;100.00;99670.81;4974665;28;20026;-42
2021/10/11 02:55:35;;;;;;;1999.90;999.90;;;;;;;11.65;100.00;99667.56;4974567;28;20086;-42
2021/10/11 02:58:01;;;;;;;1999.90;999.90;;;;;;;11.65;100.00;99662.22;4974560;28;20034;-42
2021/10/11 03:00:26;;;;;;;1999.90;999.90;;;;;;;11.63;100.00;99661.69;4974520;28;20031;-42
2021/10/11 03:02:52;;;;;;;1999.90;999.90;;;;;;;11.61;100.00;99663.78;4974393;28;20035;-43
2021/10/11 03:05:18;;;;;;;1999.90;999.90;;;;;;;11.58;100.00;99658.16;4974672;28;20464;-43
2021/10/11 03:07:44;;;;;;;1999.90;999.90;;;;;;;11.59;100.00;99665.13;4974746;28;20169;-42
2021/10/11 03:10:10;;;;;;;1999.90;999.90;;;;;;;11.65;100.00;99666.78;4975140;28;20510;-42
2021/10/11 03:12:36;;;;;;;1999.90;999.90;;;;;;;11.58;100.00;99650.94;4974318;28;20031;-42
2021/10/11 03:15:04;;;;;;;1999.90;999.90;;;;;;;11.56;100.00;99656.53;4974577;28;20033;-43
2021/10/11 03:17:30;;;;;;;1999.90;999.90;;;;;;;11.57;100.00;99660.03;4974150;28;20030;-43
2021/10/11 03:19:55;;;;;;;1999.90;999.90;;;;;;;11.62;100.00;99661.94;4974167;28;20072;-42
2021/10/11 03:22:21;;;;;;;1999.90;999.90;;;;;;;11.66;100.00;99660.38;4974284;28;20093;-42
2021/10/11 03:24:46;;;;;;;1999.90;999.90;;;;;;;11.66;100.00;99657.72;4974343;28;20030;-42
2021/10/11 03:27:12;;;;;;;1999.90;999.90;;;;;;;11.65;100.00;99656.09;4974001;28;20457;-42
2021/10/11 03:29:38;;;;;;;1999.90;999.90;;;;;;;11.64;100.00;99655.31;4974317;28;20453;-42
2021/10/11 03:32:04;;;;;;;1999.90;999.90;;;;;;;11.67;100.00;99653.97;4974549;28;20422;-42
2021/10/11 03:34:29;;;;;;;1999.90;999.90;;;;;;;11.66;100.00;99655.84;4974180;28;20034;-42
2021/10/11 03:36:55;;;;;;;1999.90;999.90;;;;;;;11.63;100.00;99653.69;4973869;28;20380;-42
2021/10/11 03:39:21;;;;;;;1999.90;999.90;;;;;;;11.67;100.00;99646.78;4973811;28;20034;-42
2021/10/11 03:41:46;;;;;;;1999.90;999.90;;;;;;;11.67;100.00;99657.47;4973795;28;20037;-42
2021/10/11 03:44:12;;;;;;;1999.90;999.90;;;;;;;11.70;100.00;99654.28;4973735;28;20113;-42
2021/10/11 03:46:38;;;;;;;1999.90;999.90;;;;;;;11.65;100.00;99654.22;4973733;28;20058;-42
2021/10/11 03:49:04;;;;;;;1999.90;999.90;;;;;;;11.65;100.00;99632.06;4973674;28;20030;-42
2021/10/11 03:51:30;;;;;;;1999.90;999.90;;;;;;;11.59;100.00;99636.56;4973517;28;20529;-40
2021/10/11 03:53:56;;;;;;;1999.90;999.90;;;;;;;11.65;100.00;99650.75;4973611;28;20030;-42
2021/10/11 03:56:21;;;;;;;1999.90;999.90;;;;;;;11.66;100.00;99647.84;4973723;28;20035;-42
2021/10/11 03:58:47;;;;;;;1999.90;999.90;;;;;;;11.67;100.00;99659.31;4973553;28;20034;-42
2021/10/11 04:01:13;;;;;;;1999.90;999.90;;;;;;;11.70;100.00;99661.47;4973784;28;20093;-42
2021/10/11 04:03:39;;;;;;;1999.90;999.90;;;;;;;11.74;100.00;99643.91;4973106;28;20627;-41
2021/10/11 04:06:07;;;;;;;1999.90;999.90;;;;;;;11.67;100.00;99641.44;4973328;28;20075;-42
2021/10/11 04:08:40;;;;;;;1999.90;999.90;;;;;;;11.65;100.00;99646.22;4973349;28;20062;-42
2021/10/11 04:11:10;;;;;;;1999.90;999.90;;;;;;;11.67;100.00;99654.78;4973383;28;20039;-43
2021/10/11 04:13:37;;;;;;;1999.90;999.90;;;;;;;11.64;100.00;99660.66;4973338;28;20074;-42
2021/10/11 04:16:04;;;;;;;1999.90;999.90;;;;;;;11.63;100.00;99655.53;4973167;28;20040;-42
2021/10/11 04:18:30;;;;;;;1999.90;999.90;;;;;;;11.64;100.00;99651.81;4973535;28;20406;-42
2021/10/11 04:20:56;;;;;;;1999.90;999.90;;;;;;;11.60;100.00;99648.03;4973195;28;20027;-42
2021/10/11 04:23:21;;;;;;;1999.90;999.90;;;;;;;11.61;100.00;99637.09;4973436;28;20115;-40
2021/10/11 04:25:47;;;;;;;1999.90;999.90;;;;;;;11.63;100.00;99639.50;4973187;28;20110;-42
2021/10/11 04:28:15;;;;;;;1999.90;999.90;;;;;;;11.69;100.00;99633.19;4973059;28;20027;-42
2021/10/11 04:30:42;;;;;;;1999.90;999.90;;;;;;;11.65;100.00;99619.53;4973133;28;20066;-42
2021/10/11 04:33:08;;;;;;;1999.90;999.90;;;;;;;11.63;100.00;99613.66;4973104;28;20034;-42
2021/10/11 04:35:34;;;;;;;1999.90;999.90;;;;;;;11.53;100.00;99624.22;4973660;28;20030;-42
2021/10/11 04:38:01;;;;;;;1999.90;999.90;;;;;;;11.51;100.00;99621.81;4973025;28;20418;-43
2021/10/11 04:40:26;;;;;;;1999.90;999.90;;;;;;;11.48;100.00;99626.81;4973121;28;20035;-42
2021/10/11 04:42:53;;;;;;;1999.90;999.90;;;;;;;11.52;100.00;99623.41;4973036;28;20501;-42
2021/10/11 04:45:18;;;;;;;1999.90;999.90;;;;;;;11.52;100.00;99628.75;4973022;28;20039;-42
2021/10/11 04:47:44;;;;;;;1999.90;999.90;;;;;;;11.55;100.00;99628.25;4974935;28;20034;-42
2021/10/11 04:50:10;;;;;;;1999.90;999.90;;;;;;;11.60;100.00;99627.50;4976956;28;20035;-43
2021/10/11 04:52:36;;;;;;;1999.90;999.90;;;;;;;11.64;100.00;99635.78;4977165;28;20041;-42
2021/10/11 04:55:02;;;;;;;1999.90;999.90;;;;;;;11.67;100.00;99628.09;4976823;28;20031;-42
2021/10/11 04:57:27;;;;;;;;;;;;;;;11.64;100.00;99627.78;4977165;28;20030;-43
2021/10/11 04:59:53;;;;;;;1999.90;999.90;;;;;;;11.68;100.00;99629.69;4976687;28;20005;-42
2021/10/11 05:02:19;;;;;;;1999.90;999.90;;;;;;;11.72;100.00;99633.47;4976657;28;20023;-42
2021/10/11 05:04:44;;;;;;;1999.90;999.90;;;;;;;11.78;100.00;99633.53;4976446;28;20074;-42
2021/10/11 05:07:10;;;;;;;1999.90;999.90;;;;;;;11.84;100.00;99635.19;4976528;28;20043;-42
2021/10/11 05:09:36;;;;;;;1999.90;999.90;;;;;;;11.87;100.00;99634.69;4976620;28;20027;-43
2021/10/11 05:12:01;;;;;;;1999.90;999.90;;;;;;;11.84;100.00;99640.53;4976537;28;20062;-43
2021/10/11 05:14:27;;;;;;;1999.90;999.90;;;;;;;11.86;100.00;99636.56;4976503;28;20027;-43
2021/10/11 05:16:54;;;;;;;1999.90;999.90;;;;;;;11.83;100.00;99634.38;4976690;28;20023;-42
2021/10/11 05:19:27;;;;;;;1999.90;999.90;;;;;;;11.93;100.00;99632.88;4976336;28;20054;-42
2021/10/11 05:21:53;;;;;;;1999.90;999.90;;;;;;;11.95;100.00;99630.75;4976685;28;20078;-43
2021/10/11 05:24:23;;;;;;;1999.90;999.90;;;;;;;11.93;100.00;99636.34;4976198;28;20415;-42
2021/10/11 05:26:52;;;;;;;1999.90;999.90;;;;;;;11.88;100.00;99634.44;4976213;28;20030;-42
2021/10/11 05:29:18;;;;;;;1999.90;999.90;;;;;;;11.93;100.00;99635.53;4976268;28;20026;-42
2021/10/11 05:31:45;;;;;;;1999.90;999.90;;;;;;;11.99;100.00;99629.19;4976135;28;20125;-41
2021/10/11 05:34:11;;;;;;;1999.90;999.90;;;;;;;11.98;100.00;99632.91;4976438;28;20043;-42
2021/10/11 05:36:37;;;;;;;1999.90;999.90;;;;;;;11.95;100.00;99636.94;4976103;28;20446;-43
2021/10/11 05:39:03;;;;;;;1999.90;999.90;;;;;;;12.03;100.00;99641.00;4976307;28;20034;-41
2021/10/11 05:41:29;;;;;;;1999.90;999.90;;;;;;;12.04;100.00;99627.38;4975902;28;20081;-42
2021/10/11 05:43:54;;;;;;;1999.90;999.90;;;;;;;12.15;100.00;99638.16;4976225;28;20035;-42
2021/10/11 05:46:20;;;;;;;1999.90;999.90;;;;;;;12.10;100.00;99636.25;4975919;28;20394;-43
2021/10/11 05:48:46;;;;;;;1999.90;999.90;;;;;;;12.11;100.00;99637.03;4976122;28;20045;-43
2021/10/11 05:51:11;;;;;;;1999.90;999.90;;;;;;;12.12;100.00;99636.78;4976109;28;20558;-42
2021/10/11 05:53:37;;;;;;;1999.90;999.90;;;;;;;12.18;100.00;99642.97;4975815;28;20035;-43
2021/10/11 05:56:03;;;;;;;1999.90;999.90;;;;;;;12.20;100.00;99646.19;4976037;28;20034;-40
2021/10/11 05:58:28;;;;;;;1999.90;999.90;;;;;;;12.24;100.00;99636.59;4974431;28;20547;-42
2021/10/11 06:00:54;;;;;;;1999.90;999.90;;;;;;;12.39;100.00;99639.41;4975753;28;20031;-42
2021/10/11 06:03:20;;;;;;;1999.90;999.90;;;;;;;12.32;100.00;99635.31;4975597;28;20057;-42
2021/10/11 06:05:45;;;;;;;1999.90;999.90;;;;;;;12.31;100.00;99639.84;4975882;28;20031;-42
2021/10/11 06:08:11;;;;;;;1999.90;999.90;;;;;;;12.42;100.00;99641.56;4975767;28;20434;-42
2021/10/11 06:10:37;;;;;;;1999.90;999.90;;;;;;;12.50;100.00;99636.78;4975452;28;20600;-42
2021/10/11 06:13:03;;;;;;;1999.90;999.90;;;;;;;12.55;100.00;99634.13;4975701;28;20073;-42
2021/10/11 06:15:29;;;;;;;1999.90;999.90;;;;;;;12.52;100.00;99631.97;4975407;28;20088;-42
2021/10/11 06:17:55;;;;;;;1999.90;999.90;;;;;;;12.57;100.00;99642.72;4975566;28;20031;-42
2021/10/11 06:20:21;;;;;;;1999.90;999.90;;;;;;;12.55;100.00;99651.00;4975297;28;20475;-42
2021/10/11 06:22:47;;;;;;;1999.90;999.90;;;;;;;12.51;100.00;99660.59;4975436;28;20050;-42
2021/10/11 06:25:12;;;;;;;1999.90;999.90;;;;;;;12.49;100.00;99662.69;4975835;28;20475;-42
2021/10/11 06:27:38;;;;;;;1999.90;999.90;;;;;;;12.46;100.00;99657.06;4975579;28;20030;-42
2021/10/11 06:30:06;;;;;;;1999.90;999.90;;;;;;;12.38;100.00;99661.03;4975079;28;20027;-42
2021/10/11 06:32:31;;;;;;;1999.90;999.90;;;;;;;12.34;100.00;99652.69;4975070;28;20035;-42
2021/10/11 06:34:57;;;;;;;1999.90;999.90;;;;;;;12.45;100.00;99647.44;4974877;28;20034;-42
2021/10/11 06:37:23;;;;;;;1999.90;999.90;;;;;;;12.48;100.00;99653.09;4974833;28;20089;-42
2021/10/11 06:39:49;;;;;;;1999.90;999.90;;;;;;;12.59;100.00;99652.06;4974950;28;20102;-42
2021/10/11 06:42:14;;;;;;;1999.90;999.90;;;;;;;12.78;100.00;99665.00;4975183;28;20022;-42
2021/10/11 06:44:40;;;;;;;1999.90;999.90;;;;;;;12.94;100.00;99652.53;4974772;28;20509;-42
2021/10/11 06:47:06;;;;;;;1999.90;999.90;;;;;;;13.24;100.00;99657.22;4974772;28;20476;-42
2021/10/11 06:49:32;;;;;;;1999.90;999.90;;;;;;;13.70;100.00;99645.84;4974493;28;20022;-42
2021/10/11 06:51:57;;;;;;;1999.90;999.90;;;;;;;14.07;100.00;99639.44;4974830;28;20114;-42
2021/10/11 06:54:23;;;;;;;1999.90;999.90;;;;;;;14.09;100.00;99648.00;4974675;28;20031;-42
2021/10/11 06:56:49;;;;;;;1999.90;999.90;;;;;;;13.99;100.00;99642.63;4974643;28;20140;-42
2021/10/11 06:59:14;;;;;;;1999.90;999.90;;;;;;;13.98;100.00;99654.44;4974546;28;20041;-42
2021/10/11 07:01:42;;;;;;;1999.90;999.90;;;;;;;13.95;100.00;99646.94;4974535;28;20062;-42
2021/10/11 07:04:09;;;;;;;1999.90;999.90;;;;;;;14.05;100.00;99644.28;4974214;28;20053;-42
2021/10/11 07:06:35;;;;;;;1999.90;999.90;;;;;;;14.16;100.00;99645.84;4974473;28;20513;-42
2021/10/11 07:09:00;;;;;;;1999.90;999.90;;;;;;;14.05;100.00;99636.22;4974515;28;20023;-42
2021/10/11 07:11:26;;;;;;;1999.90;999.90;;;;;;;13.87;100.00;99629.50;4974254;28;20462;-42
2021/10/11 07:13:51;;;;;;;1999.90;999.90;;;;;;;13.77;100.00;99624.97;4974175;28;20474;-42
2021/10/11 07:16:17;;;;;;;1999.90;999.90;;;;;;;13.60;100.00;99616.38;4974092;28;20157;-42
2021/10/11 07:18:43;;;;;;;1999.90;999.90;;;;;;;13.55;100.00;99617.19;4974189;28;20034;-42
2021/10/11 07:21:08;;;;;;;1999.90;999.90;;;;;;;13.42;100.00;99609.63;4972920;28;20121;-42
2021/10/11 07:23:35;;;;;;;1999.90;999.90;;;;;;;13.48;100.00;99617.41;4972876;28;20514;-42
2021/10/11 07:26:02;;;;;;;1999.90;999.90;;;;;;;13.38;100.00;99613.94;4974016;28;20035;-42
2021/10/11 07:28:29;;;;;;;1999.90;999.90;;;;;;;13.38;100.00;99616.59;4973767;28;20034;-42
2021/10/11 07:30:55;;;;;;;1999.90;999.90;;;;;;;13.27;100.00;99603.16;4973973;28;20429;-43
2021/10/11 07:33:22;;;;;;;1999.90;999.90;;;;;;;13.13;100.00;99602.84;4973950;28;20105;-42
2021/10/11 07:35:49;;;;;;;1999.90;999.90;;;;;;;13.13;100.00;99608.19;4973847;28;20058;-42
2021/10/11 07:38:15;;;;;;;1999.90;999.90;;;;;;;13.18;100.00;99615.44;4973607;28;20023;-42
2021/10/11 07:40:40;;;;;;;1999.90;999.90;;;;;;;13.26;100.00;99620.28;4972483;28;20035;-42
2021/10/11 07:43:06;;;;;;;1999.90;999.90;;;;;;;13.35;100.00;99625.97;4973645;28;20031;-41
2021/10/11 07:45:32;;;;;;;1999.90;999.90;;;;;;;13.34;100.00;99621.66;4974044;28;20081;-41
2021/10/11 07:47:57;;;;;;;1999.90;999.90;;;;;;;13.47;100.00;99623.84;4973744;28;20499;-42
2021/10/11 07:50:23;;;;;;;1999.90;999.90;;;;;;;13.70;100.00;99627.09;4973866;28;20073;-42
2021/10/11 07:52:49;;;;;;;1999.90;999.90;;;;;;;13.91;100.00;99624.44;4972271;28;20482;-42
2021/10/11 07:55:14;;;;;;;1999.90;999.90;;;;;;;13.99;100.00;99621.19;4973518;28;20023;-42
2021/10/11 07:57:42;;;;;;;1999.90;999.90;;;;;;;14.19;100.00;99625.75;4973446;28;20026;-42
2021/10/11 08:00:10;;;;;;;1999.90;999.90;;;;;;;14.34;100.00;99619.56;4973386;28;20554;-42
2021/10/11 08:02:36;;;;;;;1999.90;999.90;;;;;;;14.34;100.00;99619.56;4973070;28;20035;-42
2021/10/11 08:05:03;;;;;;;1999.90;999.90;;;;;;;14.37;100.00;99602.16;4973804;28;20022;-42
2021/10/11 08:07:28;;;;;;;;;;;;;;;14.29;100.00;99608.88;4973834;28;20058;-42
2021/10/11 08:09:54;;;;;;;1999.90;999.90;;;;;;;14.10;100.00;99612.09;4973174;28;19960;-42
2021/10/11 08:12:19;;;;;;;1999.90;999.90;;;;;;;14.13;100.00;99608.09;4973292;28;20034;-42
2021/10/11 08:14:45;;;;;;;1999.90;999.90;;;;;;;14.10;100.00;99598.69;4973296;28;20046;-42
2021/10/11 08:17:12;;;;;;;1999.90;999.90;;;;;;;14.11;100.00;99600.31;4973252;28;20057;-42
2021/10/11 08:19:38;;;;;;;1999.90;999.90;;;;;;;14.31;100.00;99596.00;4973223;28;20122;-42
2021/10/11 08:22:04;;;;;;;1999.90;999.90;;;;;;;14.49;100.00;99583.88;4971316;28;20113;-42
2021/10/11 08:24:30;;;;;;;1999.90;999.90;;;;;;;14.64;100.00;99581.19;4972800;28;20039;-42
2021/10/11 08:26:56;;;;;;;1999.90;999.90;;;;;;;14.65;100.00;99579.31;4973186;28;20033;-42
2021/10/11 08:29:21;;;;;;;1999.90;999.90;;;;;;;14.80;100.00;99579.25;4973272;28;20030;-42
2021/10/11 08:31:47;;;;;;;1999.90;999.90;;;;;;;14.88;100.00;99576.00;4973294;28;20030;-42
2021/10/11 08:34:13;;;;;;;1999.90;999.90;;;;;;;14.71;100.00;99570.16;4973367;28;20046;-42
2021/10/11 08:36:38;;;;;;;1999.90;999.90;;;;;;;14.60;100.00;99571.25;4973436;28;20461;-42
2021/10/11 08:39:05;;;;;;;1999.90;999.90;;;;;;;14.60;100.00;99574.75;4973039;28;20459;-42
2021/10/11 08:41:30;;;;;;;;;;;;;;;14.60;100.00;99574.75;4973432;28;20560;-42
2021/10/11 08:43:56;;;;;;;1999.90;999.90;;;;;;;14.59;100.00;99572.34;4973052;28;19918;-42
2021/10/11 08:46:23;;;;;;;1999.90;999.90;;;;;;;14.66;100.00;99575.56;4972971;28;20070;-42
2021/10/11 08:48:49;;;;;;;1999.90;999.90;;;;;;;14.52;100.00;99578.00;4972885;28;20410;-42
2021/10/11 08:51:15;;;;;;;1999.90;999.90;;;;;;;14.43;100.00;99579.63;4973539;28;20026;-42
2021/10/11 08:53:41;;;;;;;1999.90;999.90;;;;;;;14.46;100.00;99574.53;4972970;28;20035;-42
2021/10/11 08:56:11;;;;;;;1999.90;999.90;;;;;;;14.47;100.00;99576.13;4973253;28;20042;-42
2021/10/11 08:58:49;;;;;;;1999.90;999.90;;;;;;;14.64;100.00;99570.47;4972860;28;20037;-42
2021/10/11 09:01:19;;;;;;;1999.90;999.90;;;;;;;14.68;100.00;99566.16;4973695;28;20038;-42
2021/10/11 09:03:44;;;;;;;1999.90;999.90;;;;;;;14.68;100.00;99571.53;4972490;28;20047;-42
2021/10/11 09:06:12;;;;;;;1999.90;999.90;;;;;;;14.73;100.00;99572.59;4972834;28;20089;-43
2021/10/11 09:08:40;;;;;;;1999.90;999.90;;;;;;;14.55;100.00;99573.94;4972834;28;20487;-42
2021/10/11 09:11:11;;;;;;;1999.90;999.90;;;;;;;14.67;100.00;99577.97;4972795;28;20034;-43
2021/10/11 09:13:45;;;;;;;1999.90;999.90;;;;;;;14.76;100.00;99574.72;4972777;28;20027;-43
2021/10/11 09:16:17;;;;;;;1999.90;999.90;;;;;;;15.04;100.00;99560.63;4973074;28;20486;-42
2021/10/11 09:18:51;;;;;;;1999.90;999.90;;;;;;;15.01;100.00;99557.72;4972574;28;20058;-42
2021/10/11 09:21:31;;;;;;;1999.90;999.90;;;;;;;14.98;100.00;99560.94;4972738;28;20023;-42
2021/10/11 09:24:09;;;;;;;1999.90;999.90;;;;;;;14.94;100.00;99573.31;4972647;28;20031;-42
2021/10/11 09:26:56;;;;;;;1999.90;999.90;;;;;;;14.89;100.00;99574.13;4973444;28;20110;-42
2021/10/11 09:29:39;;;;;;;1999.90;999.90;;;;;;;14.74;100.00;99571.50;4972550;28;20023;-42
2021/10/11 09:32:07;;;;;;;1999.90;999.90;;;;;;;14.43;100.00;99574.25;4972662;28;20035;-43
2021/10/11 09:34:35;;;;;;;1999.90;999.90;;;;;;;14.31;100.00;99569.97;4975642;28;20085;-42
2021/10/11 09:37:09;;;;;;;1999.90;999.90;;;;;;;14.21;100.00;99561.97;4976419;28;20098;-42
2021/10/11 09:39:38;;;;;;;1999.90;999.90;;;;;;;14.42;100.00;99564.59;4976296;28;20050;-42
2021/10/11 09:42:07;;;;;;;1999.90;999.90;;;;;;;14.50;100.00;99566.72;4976034;28;20394;-42
2021/10/11 09:44:33;;;;;;;1999.90;999.90;;;;;;;14.51;100.00;99565.66;4976142;28;20031;-42
2021/10/11 09:47:11;;;;;;;;;;;;;;;14.43;100.00;99555.50;4976371;28;20023;-42
2021/10/11 09:49:38;;;;;;;1999.90;999.90;;;;;;;14.55;100.00;99550.63;4975844;28;19910;-42
2021/10/11 09:52:05;;;;;;;1999.90;999.90;;;;;;;14.24;100.00;99561.44;4975830;28;20101;-43
2021/10/11 09:54:32;;;;;;;1999.90;999.90;;;;;;;14.15;100.00;99547.78;4975820;28;20610;-42
2021/10/11 09:56:57;;;;;;;1999.90;999.90;;;;;;;14.11;100.00;99553.94;4975703;28;20499;-43
2021/10/11 09:59:24;;;;;;;1999.90;999.90;;;;;;;14.02;100.00;99552.88;4975667;28;20061;-42
2021/10/11 10:01:50;;;;;;;1999.90;999.90;;;;;;;14.07;100.00;99542.97;4975964;28;20030;-42
2021/10/11 10:04:24;;;;;;;1999.90;999.90;;;;;;;14.05;100.00;99549.66;4974025;28;20457;-42
2021/10/11 10:06:53;;;;;;;1999.90;999.90;;;;;;;13.99;100.00;99540.84;4975613;28;20038;-42
2021/10/11 10:09:21;;;;;;;1999.90;999.90;;;;;;;14.07;100.00;99542.19;4975750;28;20031;-42
2021/10/11 10:11:47;;;;;;;1999.90;999.90;;;;;;;14.00;100.00;99529.84;4975794;28;20446;-42
2021/10/11 10:14:21;;;;;;;1999.90;999.90;;;;;;;13.89;100.00;99528.28;4975728;28;20038;-42
2021/10/11 10:16:48;;;;;;;1999.90;999.90;;;;;;;13.86;100.00;99523.47;4975343;28;20481;-42
2021/10/11 10:19:14;;;;;;;1999.90;999.90;;;;;;;13.93;100.00;99501.75;4975272;28;20030;-42
2021/10/11 10:21:40;;;;;;;1999.90;999.90;;;;;;;13.87;100.00;99510.84;4975289;28;20038;-43
2021/10/11 10:24:07;;;;;;;1999.90;999.90;;;;;;;13.99;100.00;99503.31;4975292;28;20031;-42
2021/10/11 10:26:35;;;;;;;1999.90;999.90;;;;;;;13.91;100.00;99509.25;4975498;28;20490;-42
2021/10/11 10:29:19;;;;;;;1999.90;999.90;;;;;;;13.83;100.00;99508.72;4975135;28;20023;-42
2021/10/11 10:31:45;;;;;;;1999.90;999.90;;;;;;;13.85;100.00;99502.31;4975443;28;20023;-42
2021/10/11 10:34:26;;;;;;;1999.90;999.90;;;;;;;13.74;100.00;99491.59;4975103;28;20552;-42
2021/10/11 10:37:10;;;;;;;1999.90;999.90;;;;;;;13.76;100.00;99491.34;4975358;28;20081;-43
2021/10/11 10:39:48;;;;;;;1999.90;999.90;;;;;;;13.79;100.00;99486.22;4975268;28;20380;-42
2021/10/11 10:42:29;;;;;;;1999.90;999.90;;;;;;;13.73;100.00;99476.59;4975578;28;20062;-42
2021/10/11 10:44:57;;;;;;;1999.90;999.90;;;;;;;13.72;100.00;99471.50;4974251;28;20035;-42
2021/10/11 10:47:37;;;;;;;1999.90;999.90;;;;;;;13.67;100.00;99464.28;4974827;28;20442;-42